sensor_id;sensor_type;location;lat;lon;timestamp;temperature;humidity
22471;DHT22;11402;51.374;6.594;2022-08-03T00:02:20;20.30;99.90
22471;DHT22;11402;51.374;6.594;2022-08-03T00:04:46;20.20;99.90
22471;DHT22;11402;51.374;6.594;2022-08-03T00:07:12;20.10;99.90
22471;DHT22;11402;51.374;6.594;2022-08-03T00:09:37;20.10;99.90
22471;DHT22;11402;51.374;6.594;2022-08-03T00:12:03;20.10;99.90
22471;DHT22;11402;51.374;6.594;2022-08-03T00:14:29;20.20;99.90
22471;DHT22;11402;51.374;6.594;2022-08-03T00:16:54;20.10;99.90
22471;DHT22;11402;51.374;6.594;2022-08-03T00:19:20;19.90;99.90
22471;DHT22;11402;51.374;6.594;2022-08-03T00:21:45;19.60;99.90
22471;DHT22;11402;51.374;6.594;2022-08-03T00:24:11;19.80;99.90
22471;DHT22;11402;51.374;6.594;2022-08-03T00:26:36;19.80;99.90
22471;DHT22;11402;51.374;6.594;2022-08-03T00:29:02;20.00;99.90
22471;DHT22;11402;51.374;6.594;2022-08-03T00:31:27;20.00;99.90
22471;DHT22;11402;51.374;6.594;2022-08-03T00:33:53;19.80;99.90
22471;DHT22;11402;51.374;6.594;2022-08-03T00:36:19;20.00;99.90
22471;DHT22;11402;51.374;6.594;2022-08-03T00:38:44;20.10;99.90
22471;DHT22;11402;51.374;6.594;2022-08-03T00:41:10;19.60;99.90
22471;DHT22;11402;51.374;6.594;2022-08-03T00:43:35;20.10;99.90
22471;DHT22;11402;51.374;6.594;2022-08-03T00:46:01;19.80;99.90
22471;DHT22;11402;51.374;6.594;2022-08-03T00:48:26;19.80;99.90
22471;DHT22;11402;51.374;6.594;2022-08-03T00:50:52;19.80;99.90
22471;DHT22;11402;51.374;6.594;2022-08-03T00:53:18;19.70;99.90
22471;DHT22;11402;51.374;6.594;2022-08-03T00:55:44;19.40;99.90
22471;DHT22;11402;51.374;6.594;2022-08-03T00:58:10;19.50;99.90
22471;DHT22;11402;51.374;6.594;2022-08-03T01:00:37;19.70;99.90
22471;DHT22;11402;51.374;6.594;2022-08-03T01:03:04;19.70;99.90
22471;DHT22;11402;51.374;6.594;2022-08-03T01:08:27;19.70;99.90
22471;DHT22;11402;51.374;6.594;2022-08-03T01:11:16;19.40;99.90
22471;DHT22;11402;51.374;6.594;2022-08-03T01:13:58;19.60;99.90
22471;DHT22;11402;51.374;6.594;2022-08-03T01:16:31;19.60;99.90
22471;DHT22;11402;51.374;6.594;2022-08-03T01:19:11;19.50;99.90
22471;DHT22;11402;51.374;6.594;2022-08-03T01:24:34;19.80;99.90
22471;DHT22;11402;51.374;6.594;2022-08-03T01:27:18;19.70;99.90
22471;DHT22;11402;51.374;6.594;2022-08-03T01:29:59;19.70;99.90
22471;DHT22;11402;51.374;6.594;2022-08-03T01:36:04;19.60;99.90
22471;DHT22;11402;51.374;6.594;2022-08-03T01:38:14;19.60;99.90
22471;DHT22;11402;51.374;6.594;2022-08-03T01:40:41;19.60;99.90
22471;DHT22;11402;51.374;6.594;2022-08-03T01:43:13;19.40;99.90
22471;DHT22;11402;51.374;6.594;2022-08-03T01:45:40;19.30;99.90
22471;DHT22;11402;51.374;6.594;2022-08-03T01:48:10;19.40;99.90
22471;DHT22;11402;51.374;6.594;2022-08-03T01:50:37;19.50;99.90
22471;DHT22;11402;51.374;6.594;2022-08-03T01:53:04;19.50;99.90
22471;DHT22;11402;51.374;6.594;2022-08-03T01:55:34;19.50;99.90
22471;DHT22;11402;51.374;6.594;2022-08-03T01:58:02;19.50;99.90
22471;DHT22;11402;51.374;6.594;2022-08-03T02:00:29;19.40;99.90
22471;DHT22;11402;51.374;6.594;2022-08-03T02:02:56;19.30;99.90
22471;DHT22;11402;51.374;6.594;2022-08-03T02:05:23;19.30;99.90
22471;DHT22;11402;51.374;6.594;2022-08-03T02:07:51;19.40;99.90
22471;DHT22;11402;51.374;6.594;2022-08-03T02:10:18;19.40;99.90
22471;DHT22;11402;51.374;6.594;2022-08-03T02:12:45;19.40;99.90
22471;DHT22;11402;51.374;6.594;2022-08-03T02:15:14;19.40;99.90
22471;DHT22;11402;51.374;6.594;2022-08-03T02:17:41;19.30;99.90
22471;DHT22;11402;51.374;6.594;2022-08-03T02:20:10;19.30;99.90
22471;DHT22;11402;51.374;6.594;2022-08-03T02:22:39;19.30;99.90
22471;DHT22;11402;51.374;6.594;2022-08-03T02:25:06;19.30;99.90
22471;DHT22;11402;51.374;6.594;2022-08-03T02:27:33;19.20;99.90
22471;DHT22;11402;51.374;6.594;2022-08-03T02:30:07;19.20;99.90
22471;DHT22;11402;51.374;6.594;2022-08-03T02:32:36;19.10;99.90
22471;DHT22;11402;51.374;6.594;2022-08-03T02:35:05;19.20;99.90
22471;DHT22;11402;51.374;6.594;2022-08-03T02:37:35;19.00;99.90
22471;DHT22;11402;51.374;6.594;2022-08-03T02:40:03;19.10;99.90
22471;DHT22;11402;51.374;6.594;2022-08-03T02:42:32;19.10;99.90
22471;DHT22;11402;51.374;6.594;2022-08-03T02:45:02;19.10;99.90
22471;DHT22;11402;51.374;6.594;2022-08-03T02:47:30;19.00;99.90
22471;DHT22;11402;51.374;6.594;2022-08-03T02:49:57;19.10;99.90
22471;DHT22;11402;51.374;6.594;2022-08-03T02:52:27;19.10;99.90
22471;DHT22;11402;51.374;6.594;2022-08-03T02:54:56;19.20;99.90
22471;DHT22;11402;51.374;6.594;2022-08-03T02:57:28;19.10;99.90
22471;DHT22;11402;51.374;6.594;2022-08-03T02:59:56;19.10;99.90
22471;DHT22;11402;51.374;6.594;2022-08-03T03:02:23;19.10;99.90
22471;DHT22;11402;51.374;6.594;2022-08-03T03:04:50;19.10;99.90
22471;DHT22;11402;51.374;6.594;2022-08-03T03:07:17;19.00;99.90
22471;DHT22;11402;51.374;6.594;2022-08-03T03:09:43;19.00;99.90
22471;DHT22;11402;51.374;6.594;2022-08-03T03:12:11;19.00;99.90
22471;DHT22;11402;51.374;6.594;2022-08-03T03:14:38;19.00;99.90
22471;DHT22;11402;51.374;6.594;2022-08-03T03:17:05;18.90;99.90
22471;DHT22;11402;51.374;6.594;2022-08-03T03:19:32;19.00;99.90
22471;DHT22;11402;51.374;6.594;2022-08-03T03:22:02;19.00;99.90
22471;DHT22;11402;51.374;6.594;2022-08-03T03:24:29;18.90;99.90
22471;DHT22;11402;51.374;6.594;2022-08-03T03:26:55;18.90;99.90
22471;DHT22;11402;51.374;6.594;2022-08-03T03:29:22;18.90;99.90
22471;DHT22;11402;51.374;6.594;2022-08-03T03:31:48;18.80;99.90
22471;DHT22;11402;51.374;6.594;2022-08-03T03:34:14;18.70;99.90
22471;DHT22;11402;51.374;6.594;2022-08-03T03:36:40;18.70;99.90
22471;DHT22;11402;51.374;6.594;2022-08-03T03:39:06;18.70;99.90
22471;DHT22;11402;51.374;6.594;2022-08-03T03:41:31;18.60;99.90
22471;DHT22;11402;51.374;6.594;2022-08-03T03:43:57;18.70;99.90
22471;DHT22;11402;51.374;6.594;2022-08-03T03:46:23;18.80;99.90
22471;DHT22;11402;51.374;6.594;2022-08-03T03:48:49;18.80;99.90
22471;DHT22;11402;51.374;6.594;2022-08-03T03:51:15;18.80;99.90
22471;DHT22;11402;51.374;6.594;2022-08-03T03:53:53;18.80;99.90
22471;DHT22;11402;51.374;6.594;2022-08-03T03:56:19;18.80;99.90
22471;DHT22;11402;51.374;6.594;2022-08-03T03:58:44;18.80;99.90
22471;DHT22;11402;51.374;6.594;2022-08-03T04:01:11;18.70;99.90
22471;DHT22;11402;51.374;6.594;2022-08-03T04:03:37;18.70;99.90
22471;DHT22;11402;51.374;6.594;2022-08-03T04:06:02;18.70;99.90
22471;DHT22;11402;51.374;6.594;2022-08-03T04:08:47;18.70;99.90
22471;DHT22;11402;51.374;6.594;2022-08-03T04:11:37;18.70;99.90
22471;DHT22;11402;51.374;6.594;2022-08-03T04:14:22;18.70;99.90
22471;DHT22;11402;51.374;6.594;2022-08-03T04:16:52;18.70;99.90
22471;DHT22;11402;51.374;6.594;2022-08-03T04:19:26;18.70;99.90
22471;DHT22;11402;51.374;6.594;2022-08-03T04:21:53;18.70;99.90
22471;DHT22;11402;51.374;6.594;2022-08-03T04:24:21;18.80;99.90
22471;DHT22;11402;51.374;6.594;2022-08-03T04:26:48;18.80;99.90
22471;DHT22;11402;51.374;6.594;2022-08-03T04:29:15;18.70;99.90
22471;DHT22;11402;51.374;6.594;2022-08-03T04:31:42;18.80;99.90
22471;DHT22;11402;51.374;6.594;2022-08-03T04:34:09;18.90;99.90
22471;DHT22;11402;51.374;6.594;2022-08-03T04:36:39;18.90;99.90
22471;DHT22;11402;51.374;6.594;2022-08-03T04:39:13;18.80;99.90
22471;DHT22;11402;51.374;6.594;2022-08-03T04:41:42;18.80;99.90
22471;DHT22;11402;51.374;6.594;2022-08-03T04:44:09;18.90;99.90
22471;DHT22;11402;51.374;6.594;2022-08-03T04:46:38;18.90;99.90
22471;DHT22;11402;51.374;6.594;2022-08-03T04:49:05;18.90;99.90
22471;DHT22;11402;51.374;6.594;2022-08-03T04:51:31;18.90;99.90
22471;DHT22;11402;51.374;6.594;2022-08-03T04:53:59;18.90;99.90
22471;DHT22;11402;51.374;6.594;2022-08-03T04:56:24;19.00;99.90
22471;DHT22;11402;51.374;6.594;2022-08-03T04:58:50;19.00;99.90
22471;DHT22;11402;51.374;6.594;2022-08-03T05:01:16;19.00;99.90
22471;DHT22;11402;51.374;6.594;2022-08-03T05:03:42;19.00;99.90
22471;DHT22;11402;51.374;6.594;2022-08-03T05:06:07;19.20;99.90
22471;DHT22;11402;51.374;6.594;2022-08-03T05:08:34;19.40;99.90
22471;DHT22;11402;51.374;6.594;2022-08-03T05:10:59;19.40;99.90
22471;DHT22;11402;51.374;6.594;2022-08-03T05:13:25;19.40;99.90
22471;DHT22;11402;51.374;6.594;2022-08-03T05:15:51;19.40;99.90
22471;DHT22;11402;51.374;6.594;2022-08-03T05:18:16;19.30;99.90
22471;DHT22;11402;51.374;6.594;2022-08-03T05:20:42;19.50;99.90
22471;DHT22;11402;51.374;6.594;2022-08-03T05:23:08;19.50;99.90
22471;DHT22;11402;51.374;6.594;2022-08-03T05:25:33;19.60;99.90
22471;DHT22;11402;51.374;6.594;2022-08-03T05:27:59;19.70;99.90
22471;DHT22;11402;51.374;6.594;2022-08-03T05:30:25;19.90;99.90
22471;DHT22;11402;51.374;6.594;2022-08-03T05:32:50;19.90;99.90
22471;DHT22;11402;51.374;6.594;2022-08-03T05:35:16;19.90;99.90
22471;DHT22;11402;51.374;6.594;2022-08-03T05:37:41;20.00;99.90
22471;DHT22;11402;51.374;6.594;2022-08-03T05:40:07;20.00;99.90
22471;DHT22;11402;51.374;6.594;2022-08-03T05:42:36;20.20;99.90
22471;DHT22;11402;51.374;6.594;2022-08-03T05:45:03;20.30;99.90
22471;DHT22;11402;51.374;6.594;2022-08-03T05:47:39;20.40;99.90
22471;DHT22;11402;51.374;6.594;2022-08-03T05:50:05;20.60;99.90
22471;DHT22;11402;51.374;6.594;2022-08-03T05:52:31;20.60;99.90
22471;DHT22;11402;51.374;6.594;2022-08-03T05:54:56;20.60;99.90
22471;DHT22;11402;51.374;6.594;2022-08-03T05:57:22;20.70;99.90
22471;DHT22;11402;51.374;6.594;2022-08-03T05:59:47;20.80;99.90
22471;DHT22;11402;51.374;6.594;2022-08-03T06:02:13;20.90;99.90
22471;DHT22;11402;51.374;6.594;2022-08-03T06:04:38;21.00;99.90
22471;DHT22;11402;51.374;6.594;2022-08-03T06:07:04;21.10;99.90
22471;DHT22;11402;51.374;6.594;2022-08-03T06:09:30;21.10;99.90
22471;DHT22;11402;51.374;6.594;2022-08-03T06:11:55;21.10;99.90
22471;DHT22;11402;51.374;6.594;2022-08-03T06:14:21;21.10;99.90
22471;DHT22;11402;51.374;6.594;2022-08-03T06:16:46;21.30;99.90
22471;DHT22;11402;51.374;6.594;2022-08-03T06:19:12;21.40;99.90
22471;DHT22;11402;51.374;6.594;2022-08-03T06:21:37;21.50;99.90
22471;DHT22;11402;51.374;6.594;2022-08-03T06:24:03;21.60;99.90
22471;DHT22;11402;51.374;6.594;2022-08-03T06:26:28;21.70;99.90
22471;DHT22;11402;51.374;6.594;2022-08-03T06:28:54;21.80;99.90
22471;DHT22;11402;51.374;6.594;2022-08-03T06:31:26;21.90;99.90
22471;DHT22;11402;51.374;6.594;2022-08-03T06:33:53;22.00;99.90
22471;DHT22;11402;51.374;6.594;2022-08-03T06:36:19;22.10;99.90
22471;DHT22;11402;51.374;6.594;2022-08-03T06:38:44;22.10;99.90
22471;DHT22;11402;51.374;6.594;2022-08-03T06:41:10;22.20;99.90
22471;DHT22;11402;51.374;6.594;2022-08-03T06:43:36;22.30;99.90
22471;DHT22;11402;51.374;6.594;2022-08-03T06:46:03;22.40;99.90
22471;DHT22;11402;51.374;6.594;2022-08-03T06:48:30;22.50;99.90
22471;DHT22;11402;51.374;6.594;2022-08-03T06:50:55;22.40;99.90
22471;DHT22;11402;51.374;6.594;2022-08-03T06:53:21;22.40;99.90
22471;DHT22;11402;51.374;6.594;2022-08-03T06:55:46;22.30;99.90
22471;DHT22;11402;51.374;6.594;2022-08-03T06:58:12;22.40;99.90
22471;DHT22;11402;51.374;6.594;2022-08-03T07:00:38;22.60;99.90
22471;DHT22;11402;51.374;6.594;2022-08-03T07:03:03;22.70;99.90
22471;DHT22;11402;51.374;6.594;2022-08-03T07:05:29;22.80;99.90
22471;DHT22;11402;51.374;6.594;2022-08-03T07:07:57;22.90;99.90
22471;DHT22;11402;51.374;6.594;2022-08-03T07:10:24;22.90;99.90
22471;DHT22;11402;51.374;6.594;2022-08-03T07:12:50;23.00;99.90
22471;DHT22;11402;51.374;6.594;2022-08-03T07:15:16;23.10;99.90
22471;DHT22;11402;51.374;6.594;2022-08-03T07:17:42;23.30;99.90
22471;DHT22;11402;51.374;6.594;2022-08-03T07:20:08;23.40;99.90
22471;DHT22;11402;51.374;6.594;2022-08-03T07:22:34;23.40;99.90
22471;DHT22;11402;51.374;6.594;2022-08-03T07:25:00;23.50;99.90
22471;DHT22;11402;51.374;6.594;2022-08-03T07:27:25;23.70;99.90
22471;DHT22;11402;51.374;6.594;2022-08-03T07:29:53;23.90;99.90
22471;DHT22;11402;51.374;6.594;2022-08-03T07:32:19;23.90;99.90
22471;DHT22;11402;51.374;6.594;2022-08-03T07:34:44;24.00;99.90
22471;DHT22;11402;51.374;6.594;2022-08-03T07:37:10;24.00;99.90
22471;DHT22;11402;51.374;6.594;2022-08-03T07:39:35;24.10;99.90
22471;DHT22;11402;51.374;6.594;2022-08-03T07:42:01;24.20;99.90
22471;DHT22;11402;51.374;6.594;2022-08-03T07:44:27;24.30;99.90
22471;DHT22;11402;51.374;6.594;2022-08-03T07:46:52;24.30;99.90
22471;DHT22;11402;51.374;6.594;2022-08-03T07:49:18;24.30;99.90
22471;DHT22;11402;51.374;6.594;2022-08-03T07:51:43;24.30;99.90
22471;DHT22;11402;51.374;6.594;2022-08-03T07:54:09;24.30;99.90
22471;DHT22;11402;51.374;6.594;2022-08-03T07:56:35;24.40;99.90
22471;DHT22;11402;51.374;6.594;2022-08-03T07:59:01;24.40;99.90
22471;DHT22;11402;51.374;6.594;2022-08-03T08:01:27;24.60;99.90
22471;DHT22;11402;51.374;6.594;2022-08-03T08:03:53;24.50;99.90
22471;DHT22;11402;51.374;6.594;2022-08-03T08:06:19;24.60;99.90
22471;DHT22;11402;51.374;6.594;2022-08-03T08:08:45;24.80;99.90
22471;DHT22;11402;51.374;6.594;2022-08-03T08:11:10;24.80;99.90
22471;DHT22;11402;51.374;6.594;2022-08-03T08:13:36;24.80;99.90
22471;DHT22;11402;51.374;6.594;2022-08-03T08:16:03;24.80;99.90
22471;DHT22;11402;51.374;6.594;2022-08-03T08:18:29;25.00;99.90
22471;DHT22;11402;51.374;6.594;2022-08-03T08:20:54;25.20;99.90
22471;DHT22;11402;51.374;6.594;2022-08-03T08:23:20;25.40;99.90
22471;DHT22;11402;51.374;6.594;2022-08-03T08:25:52;25.40;99.90
22471;DHT22;11402;51.374;6.594;2022-08-03T08:28:18;25.40;99.90
22471;DHT22;11402;51.374;6.594;2022-08-03T08:30:44;25.30;99.90
22471;DHT22;11402;51.374;6.594;2022-08-03T08:33:10;25.40;99.90
22471;DHT22;11402;51.374;6.594;2022-08-03T08:35:36;25.40;99.90
22471;DHT22;11402;51.374;6.594;2022-08-03T08:38:01;25.30;99.90
22471;DHT22;11402;51.374;6.594;2022-08-03T08:40:27;25.50;99.90
22471;DHT22;11402;51.374;6.594;2022-08-03T08:42:53;25.40;99.90
22471;DHT22;11402;51.374;6.594;2022-08-03T08:45:19;25.50;99.90
22471;DHT22;11402;51.374;6.594;2022-08-03T08:47:46;25.60;99.90
22471;DHT22;11402;51.374;6.594;2022-08-03T08:50:14;25.60;99.90
22471;DHT22;11402;51.374;6.594;2022-08-03T08:52:42;25.80;99.90
22471;DHT22;11402;51.374;6.594;2022-08-03T08:55:12;25.90;99.90
22471;DHT22;11402;51.374;6.594;2022-08-03T08:57:46;25.90;99.90
22471;DHT22;11402;51.374;6.594;2022-08-03T09:00:13;26.00;99.90
22471;DHT22;11402;51.374;6.594;2022-08-03T09:02:41;26.40;99.90
22471;DHT22;11402;51.374;6.594;2022-08-03T09:05:12;26.20;99.90
22471;DHT22;11402;51.374;6.594;2022-08-03T09:07:39;26.20;99.90
22471;DHT22;11402;51.374;6.594;2022-08-03T09:10:10;26.20;99.90
22471;DHT22;11402;51.374;6.594;2022-08-03T09:12:41;26.30;99.90
22471;DHT22;11402;51.374;6.594;2022-08-03T09:15:26;26.30;99.90
22471;DHT22;11402;51.374;6.594;2022-08-03T09:17:54;26.50;99.90
22471;DHT22;11402;51.374;6.594;2022-08-03T09:20:22;27.00;99.90
22471;DHT22;11402;51.374;6.594;2022-08-03T09:22:58;27.00;99.90
22471;DHT22;11402;51.374;6.594;2022-08-03T09:25:38;26.80;99.90
22471;DHT22;11402;51.374;6.594;2022-08-03T09:28:10;26.90;99.90
22471;DHT22;11402;51.374;6.594;2022-08-03T09:30:38;26.90;99.90
22471;DHT22;11402;51.374;6.594;2022-08-03T09:33:10;26.90;99.90
22471;DHT22;11402;51.374;6.594;2022-08-03T09:35:46;26.80;99.90
22471;DHT22;11402;51.374;6.594;2022-08-03T09:38:14;26.90;99.90
22471;DHT22;11402;51.374;6.594;2022-08-03T09:40:41;27.20;99.90
22471;DHT22;11402;51.374;6.594;2022-08-03T09:43:07;27.30;99.90
22471;DHT22;11402;51.374;6.594;2022-08-03T09:45:35;27.20;99.90
22471;DHT22;11402;51.374;6.594;2022-08-03T09:48:27;27.20;99.90
22471;DHT22;11402;51.374;6.594;2022-08-03T09:50:56;27.00;99.90
22471;DHT22;11402;51.374;6.594;2022-08-03T09:53:23;27.00;99.90
22471;DHT22;11402;51.374;6.594;2022-08-03T09:58:22;27.20;99.90
22471;DHT22;11402;51.374;6.594;2022-08-03T10:01:01;27.20;99.90
22471;DHT22;11402;51.374;6.594;2022-08-03T10:03:35;27.30;99.90
22471;DHT22;11402;51.374;6.594;2022-08-03T10:06:15;27.10;99.90
22471;DHT22;11402;51.374;6.594;2022-08-03T10:08:41;27.40;99.90
22471;DHT22;11402;51.374;6.594;2022-08-03T10:11:07;27.30;99.90
22471;DHT22;11402;51.374;6.594;2022-08-03T10:13:32;27.40;99.90
22471;DHT22;11402;51.374;6.594;2022-08-03T10:15:58;27.50;99.90
22471;DHT22;11402;51.374;6.594;2022-08-03T10:18:24;27.60;99.90
22471;DHT22;11402;51.374;6.594;2022-08-03T10:20:56;27.50;99.90
22471;DHT22;11402;51.374;6.594;2022-08-03T10:23:23;27.60;99.90
22471;DHT22;11402;51.374;6.594;2022-08-03T10:25:53;27.60;99.90
22471;DHT22;11402;51.374;6.594;2022-08-03T10:28:22;27.60;99.90
22471;DHT22;11402;51.374;6.594;2022-08-03T10:30:50;27.60;99.90
22471;DHT22;11402;51.374;6.594;2022-08-03T10:33:19;27.70;99.90
22471;DHT22;11402;51.374;6.594;2022-08-03T10:35:49;27.70;99.90
22471;DHT22;11402;51.374;6.594;2022-08-03T10:38:19;27.80;99.90
22471;DHT22;11402;51.374;6.594;2022-08-03T10:40:49;27.80;99.90
22471;DHT22;11402;51.374;6.594;2022-08-03T10:43:33;27.90;99.90
22471;DHT22;11402;51.374;6.594;2022-08-03T10:46:02;28.00;99.90
22471;DHT22;11402;51.374;6.594;2022-08-03T10:48:30;28.20;99.90
22471;DHT22;11402;51.374;6.594;2022-08-03T10:50:56;28.00;99.90
22471;DHT22;11402;51.374;6.594;2022-08-03T10:53:36;28.10;99.90
22471;DHT22;11402;51.374;6.594;2022-08-03T10:56:02;28.00;99.90
22471;DHT22;11402;51.374;6.594;2022-08-03T10:58:48;28.00;99.90
22471;DHT22;11402;51.374;6.594;2022-08-03T11:01:14;28.00;99.90
22471;DHT22;11402;51.374;6.594;2022-08-03T11:06:23;28.10;99.90
22471;DHT22;11402;51.374;6.594;2022-08-03T11:11:36;28.30;99.90
22471;DHT22;11402;51.374;6.594;2022-08-03T11:14:06;28.40;99.90
22471;DHT22;11402;51.374;6.594;2022-08-03T11:16:41;28.40;99.90
22471;DHT22;11402;51.374;6.594;2022-08-03T11:19:08;28.60;99.90
22471;DHT22;11402;51.374;6.594;2022-08-03T11:30:03;28.60;99.90
22471;DHT22;11402;51.374;6.594;2022-08-03T11:35:16;28.60;99.90
22471;DHT22;11402;51.374;6.594;2022-08-03T11:40:52;28.60;99.90
22471;DHT22;11402;51.374;6.594;2022-08-03T11:46:05;28.80;99.90
22471;DHT22;11402;51.374;6.594;2022-08-03T11:48:39;28.70;99.90
22471;DHT22;11402;51.374;6.594;2022-08-03T11:51:25;28.80;99.90
22471;DHT22;11402;51.374;6.594;2022-08-03T11:56:18;29.00;99.90
22471;DHT22;11402;51.374;6.594;2022-08-03T11:58:52;29.10;99.90
22471;DHT22;11402;51.374;6.594;2022-08-03T12:01:20;29.00;99.90
22471;DHT22;11402;51.374;6.594;2022-08-03T12:03:46;28.80;99.90
22471;DHT22;11402;51.374;6.594;2022-08-03T12:06:14;28.80;99.90
22471;DHT22;11402;51.374;6.594;2022-08-03T12:08:41;28.70;99.90
22471;DHT22;11402;51.374;6.594;2022-08-03T12:11:08;28.60;99.90
22471;DHT22;11402;51.374;6.594;2022-08-03T12:13:42;28.60;99.90
22471;DHT22;11402;51.374;6.594;2022-08-03T12:16:09;28.60;99.90
22471;DHT22;11402;51.374;6.594;2022-08-03T12:18:41;28.70;99.90
22471;DHT22;11402;51.374;6.594;2022-08-03T12:21:09;28.90;99.90
22471;DHT22;11402;51.374;6.594;2022-08-03T12:23:35;29.10;99.90
22471;DHT22;11402;51.374;6.594;2022-08-03T12:26:04;29.00;99.90
22471;DHT22;11402;51.374;6.594;2022-08-03T12:28:30;29.00;99.90
22471;DHT22;11402;51.374;6.594;2022-08-03T12:31:01;29.20;99.90
22471;DHT22;11402;51.374;6.594;2022-08-03T12:33:27;29.30;99.90
22471;DHT22;11402;51.374;6.594;2022-08-03T12:36:07;29.30;99.90
22471;DHT22;11402;51.374;6.594;2022-08-03T12:38:36;29.20;99.90
22471;DHT22;11402;51.374;6.594;2022-08-03T12:41:08;29.20;99.90
22471;DHT22;11402;51.374;6.594;2022-08-03T12:43:47;29.50;99.90
22471;DHT22;11402;51.374;6.594;2022-08-03T12:46:14;29.40;99.90
22471;DHT22;11402;51.374;6.594;2022-08-03T12:54:01;29.60;99.90
22471;DHT22;11402;51.374;6.594;2022-08-03T12:56:27;29.60;99.90
22471;DHT22;11402;51.374;6.594;2022-08-03T12:58:52;29.70;99.90
22471;DHT22;11402;51.374;6.594;2022-08-03T13:01:19;29.60;99.90
22471;DHT22;11402;51.374;6.594;2022-08-03T13:03:48;29.60;99.90
22471;DHT22;11402;51.374;6.594;2022-08-03T13:06:15;29.80;99.90
22471;DHT22;11402;51.374;6.594;2022-08-03T13:08:42;29.80;99.90
22471;DHT22;11402;51.374;6.594;2022-08-03T13:11:25;29.80;99.90
22471;DHT22;11402;51.374;6.594;2022-08-03T13:13:53;30.10;99.90
22471;DHT22;11402;51.374;6.594;2022-08-03T13:16:19;30.20;99.90
22471;DHT22;11402;51.374;6.594;2022-08-03T13:18:47;30.00;99.90
22471;DHT22;11402;51.374;6.594;2022-08-03T13:21:14;30.20;99.90
22471;DHT22;11402;51.374;6.594;2022-08-03T13:23:40;30.10;99.90
22471;DHT22;11402;51.374;6.594;2022-08-03T13:26:06;30.20;99.90
22471;DHT22;11402;51.374;6.594;2022-08-03T13:28:31;30.20;99.90
22471;DHT22;11402;51.374;6.594;2022-08-03T13:30:57;30.00;99.90
22471;DHT22;11402;51.374;6.594;2022-08-03T13:33:22;29.90;99.90
22471;DHT22;11402;51.374;6.594;2022-08-03T13:35:48;29.90;99.90
22471;DHT22;11402;51.374;6.594;2022-08-03T13:38:14;29.80;99.90
22471;DHT22;11402;51.374;6.594;2022-08-03T13:40:39;29.70;99.90
22471;DHT22;11402;51.374;6.594;2022-08-03T13:43:05;29.90;99.90
22471;DHT22;11402;51.374;6.594;2022-08-03T13:45:30;29.90;99.90
22471;DHT22;11402;51.374;6.594;2022-08-03T13:47:56;29.70;99.90
22471;DHT22;11402;51.374;6.594;2022-08-03T13:50:21;29.70;99.90
22471;DHT22;11402;51.374;6.594;2022-08-03T13:52:47;29.70;99.90
22471;DHT22;11402;51.374;6.594;2022-08-03T13:55:12;29.70;99.90
22471;DHT22;11402;51.374;6.594;2022-08-03T13:57:38;29.70;99.90
22471;DHT22;11402;51.374;6.594;2022-08-03T14:00:05;29.70;99.90
22471;DHT22;11402;51.374;6.594;2022-08-03T14:02:31;29.60;99.90
22471;DHT22;11402;51.374;6.594;2022-08-03T14:04:56;29.80;99.90
22471;DHT22;11402;51.374;6.594;2022-08-03T14:07:22;29.90;99.90
22471;DHT22;11402;51.374;6.594;2022-08-03T14:09:47;29.90;99.90
22471;DHT22;11402;51.374;6.594;2022-08-03T14:12:13;29.80;99.90
22471;DHT22;11402;51.374;6.594;2022-08-03T14:14:39;29.70;99.90
22471;DHT22;11402;51.374;6.594;2022-08-03T14:17:04;30.00;99.90
22471;DHT22;11402;51.374;6.594;2022-08-03T14:19:30;29.90;99.90
22471;DHT22;11402;51.374;6.594;2022-08-03T14:21:57;29.80;99.90
22471;DHT22;11402;51.374;6.594;2022-08-03T14:24:22;29.90;99.90
22471;DHT22;11402;51.374;6.594;2022-08-03T14:26:48;29.60;99.90
22471;DHT22;11402;51.374;6.594;2022-08-03T14:29:13;29.50;99.90
22471;DHT22;11402;51.374;6.594;2022-08-03T14:31:39;29.30;99.90
22471;DHT22;11402;51.374;6.594;2022-08-03T14:34:05;29.30;99.90
22471;DHT22;11402;51.374;6.594;2022-08-03T14:36:31;29.20;99.90
22471;DHT22;11402;51.374;6.594;2022-08-03T14:38:57;29.20;99.90
22471;DHT22;11402;51.374;6.594;2022-08-03T14:41:23;29.10;99.90
22471;DHT22;11402;51.374;6.594;2022-08-03T14:43:48;29.10;99.90
22471;DHT22;11402;51.374;6.594;2022-08-03T14:46:14;29.20;99.90
22471;DHT22;11402;51.374;6.594;2022-08-03T14:48:39;29.40;99.90
22471;DHT22;11402;51.374;6.594;2022-08-03T14:51:05;29.50;99.90
22471;DHT22;11402;51.374;6.594;2022-08-03T14:53:31;29.50;99.90
22471;DHT22;11402;51.374;6.594;2022-08-03T14:55:56;29.50;99.90
22471;DHT22;11402;51.374;6.594;2022-08-03T14:58:23;29.70;99.90
22471;DHT22;11402;51.374;6.594;2022-08-03T15:00:53;29.70;99.90
22471;DHT22;11402;51.374;6.594;2022-08-03T15:03:20;29.70;99.90
22471;DHT22;11402;51.374;6.594;2022-08-03T15:05:48;29.70;99.90
22471;DHT22;11402;51.374;6.594;2022-08-03T15:08:14;29.70;99.90
22471;DHT22;11402;51.374;6.594;2022-08-03T15:10:39;30.00;99.90
22471;DHT22;11402;51.374;6.594;2022-08-03T15:13:05;30.00;99.90
22471;DHT22;11402;51.374;6.594;2022-08-03T15:15:30;29.90;99.90
22471;DHT22;11402;51.374;6.594;2022-08-03T15:17:56;29.90;99.90
22471;DHT22;11402;51.374;6.594;2022-08-03T15:20:22;29.90;99.90
22471;DHT22;11402;51.374;6.594;2022-08-03T15:22:47;29.70;99.90
22471;DHT22;11402;51.374;6.594;2022-08-03T15:25:13;29.70;99.90
22471;DHT22;11402;51.374;6.594;2022-08-03T15:27:38;30.10;99.90
22471;DHT22;11402;51.374;6.594;2022-08-03T15:30:04;30.10;99.90
22471;DHT22;11402;51.374;6.594;2022-08-03T15:32:32;30.20;99.90
22471;DHT22;11402;51.374;6.594;2022-08-03T15:34:58;30.20;99.90
22471;DHT22;11402;51.374;6.594;2022-08-03T15:37:23;30.20;99.90
22471;DHT22;11402;51.374;6.594;2022-08-03T15:39:50;30.00;99.90
22471;DHT22;11402;51.374;6.594;2022-08-03T15:42:15;29.90;99.90
22471;DHT22;11402;51.374;6.594;2022-08-03T15:44:41;30.10;99.90
22471;DHT22;11402;51.374;6.594;2022-08-03T15:47:06;29.80;99.90
22471;DHT22;11402;51.374;6.594;2022-08-03T15:49:32;29.70;99.90
22471;DHT22;11402;51.374;6.594;2022-08-03T15:51:58;29.70;99.90
22471;DHT22;11402;51.374;6.594;2022-08-03T15:54:23;29.90;99.90
22471;DHT22;11402;51.374;6.594;2022-08-03T15:56:49;29.80;99.90
22471;DHT22;11402;51.374;6.594;2022-08-03T15:59:14;29.70;99.90
22471;DHT22;11402;51.374;6.594;2022-08-03T16:01:40;29.70;99.90
22471;DHT22;11402;51.374;6.594;2022-08-03T16:04:06;29.70;99.90
22471;DHT22;11402;51.374;6.594;2022-08-03T16:06:32;29.90;99.90
22471;DHT22;11402;51.374;6.594;2022-08-03T16:08:57;29.70;99.90
22471;DHT22;11402;51.374;6.594;2022-08-03T16:11:23;30.20;99.90
22471;DHT22;11402;51.374;6.594;2022-08-03T16:13:49;30.10;99.90
22471;DHT22;11402;51.374;6.594;2022-08-03T16:16:15;30.10;99.90